sensor_id;sensor_type;location;lat;lon;timestamp;P1;durP1;ratioP1;P2;durP2;ratioP2
10473;SDS011;5284;50.446;7.904;2024-01-25T00:02:29;30.95;;;5.63;;
10473;SDS011;5284;50.446;7.904;2024-01-25T00:07:33;44.35;;;6.97;;
10473;SDS011;5284;50.446;7.904;2024-01-25T00:12:36;39.30;;;5.50;;
10473;SDS011;5284;50.446;7.904;2024-01-25T00:17:42;43.72;;;6.18;;
10473;SDS011;5284;50.446;7.904;2024-01-25T00:22:46;54.60;;;6.93;;
10473;SDS011;5284;50.446;7.904;2024-01-25T00:27:49;46.92;;;5.72;;
10473;SDS011;5284;50.446;7.904;2024-01-25T00:32:54;36.83;;;5.13;;
10473;SDS011;5284;50.446;7.904;2024-01-25T00:37:59;34.05;;;6.05;;
10473;SDS011;5284;50.446;7.904;2024-01-25T00:43:04;40.97;;;6.05;;
10473;SDS011;5284;50.446;7.904;2024-01-25T00:48:10;42.67;;;5.45;;
10473;SDS011;5284;50.446;7.904;2024-01-25T00:53:14;47.88;;;5.75;;
10473;SDS011;5284;50.446;7.904;2024-01-25T00:58:21;43.63;;;6.50;;
10473;SDS011;5284;50.446;7.904;2024-01-25T01:03:26;45.67;;;5.80;;
10473;SDS011;5284;50.446;7.904;2024-01-25T01:08:31;46.85;;;5.53;;
10473;SDS011;5284;50.446;7.904;2024-01-25T01:13:34;50.70;;;8.07;;
10473;SDS011;5284;50.446;7.904;2024-01-25T01:18:39;41.22;;;5.90;;
10473;SDS011;5284;50.446;7.904;2024-01-25T01:23:42;53.35;;;6.57;;
10473;SDS011;5284;50.446;7.904;2024-01-25T01:28:45;26.58;;;5.97;;
10473;SDS011;5284;50.446;7.904;2024-01-25T01:33:49;40.78;;;4.65;;
10473;SDS011;5284;50.446;7.904;2024-01-25T01:38:53;44.33;;;5.38;;
10473;SDS011;5284;50.446;7.904;2024-01-25T01:43:56;48.70;;;5.43;;
10473;SDS011;5284;50.446;7.904;2024-01-25T01:49:00;31.98;;;5.18;;
10473;SDS011;5284;50.446;7.904;2024-01-25T01:54:06;44.58;;;6.20;;
10473;SDS011;5284;50.446;7.904;2024-01-25T01:59:11;29.15;;;6.35;;
10473;SDS011;5284;50.446;7.904;2024-01-25T02:04:15;46.20;;;5.88;;
10473;SDS011;5284;50.446;7.904;2024-01-25T02:09:19;37.05;;;5.20;;
10473;SDS011;5284;50.446;7.904;2024-01-25T02:14:22;41.30;;;5.97;;
10473;SDS011;5284;50.446;7.904;2024-01-25T02:19:27;51.25;;;5.60;;
10473;SDS011;5284;50.446;7.904;2024-01-25T02:24:31;51.08;;;6.93;;
10473;SDS011;5284;50.446;7.904;2024-01-25T02:29:34;46.92;;;5.57;;
10473;SDS011;5284;50.446;7.904;2024-01-25T02:34:37;51.78;;;5.40;;
10473;SDS011;5284;50.446;7.904;2024-01-25T02:39:42;51.80;;;6.28;;
10473;SDS011;5284;50.446;7.904;2024-01-25T02:44:45;55.85;;;6.15;;
10473;SDS011;5284;50.446;7.904;2024-01-25T02:49:48;53.75;;;7.95;;
10473;SDS011;5284;50.446;7.904;2024-01-25T02:54:52;41.72;;;5.88;;
10473;SDS011;5284;50.446;7.904;2024-01-25T02:59:55;42.92;;;6.70;;
10473;SDS011;5284;50.446;7.904;2024-01-25T03:04:58;62.33;;;7.00;;
10473;SDS011;5284;50.446;7.904;2024-01-25T03:10:03;48.35;;;8.18;;
10473;SDS011;5284;50.446;7.904;2024-01-25T03:15:07;58.50;;;6.32;;
10473;SDS011;5284;50.446;7.904;2024-01-25T03:20:12;50.60;;;6.28;;
10473;SDS011;5284;50.446;7.904;2024-01-25T03:25:18;45.63;;;5.38;;
10473;SDS011;5284;50.446;7.904;2024-01-25T03:30:22;45.83;;;8.38;;
10473;SDS011;5284;50.446;7.904;2024-01-25T03:35:25;41.67;;;7.15;;
10473;SDS011;5284;50.446;7.904;2024-01-25T03:40:29;46.65;;;6.43;;
10473;SDS011;5284;50.446;7.904;2024-01-25T03:45:32;41.58;;;7.47;;
10473;SDS011;5284;50.446;7.904;2024-01-25T03:50:35;57.67;;;6.75;;
10473;SDS011;5284;50.446;7.904;2024-01-25T03:55:41;42.70;;;7.03;;
10473;SDS011;5284;50.446;7.904;2024-01-25T04:00:44;44.50;;;6.45;;
10473;SDS011;5284;50.446;7.904;2024-01-25T04:05:47;41.90;;;6.50;;
10473;SDS011;5284;50.446;7.904;2024-01-25T04:10:52;34.75;;;5.82;;
10473;SDS011;5284;50.446;7.904;2024-01-25T04:15:55;39.40;;;7.10;;
10473;SDS011;5284;50.446;7.904;2024-01-25T04:20:58;37.30;;;7.10;;
10473;SDS011;5284;50.446;7.904;2024-01-25T04:26:05;58.40;;;6.57;;
10473;SDS011;5284;50.446;7.904;2024-01-25T04:31:09;36.38;;;7.53;;
10473;SDS011;5284;50.446;7.904;2024-01-25T04:36:12;41.30;;;5.82;;
10473;SDS011;5284;50.446;7.904;2024-01-25T04:41:17;62.03;;;11.18;;
10473;SDS011;5284;50.446;7.904;2024-01-25T04:46:20;40.38;;;7.03;;
10473;SDS011;5284;50.446;7.904;2024-01-25T04:51:25;48.08;;;6.93;;
10473;SDS011;5284;50.446;7.904;2024-01-25T04:56:30;57.90;;;8.02;;
10473;SDS011;5284;50.446;7.904;2024-01-25T05:01:33;45.42;;;8.15;;
10473;SDS011;5284;50.446;7.904;2024-01-25T05:06:36;55.35;;;8.50;;
10473;SDS011;5284;50.446;7.904;2024-01-25T05:11:42;65.78;;;8.88;;
10473;SDS011;5284;50.446;7.904;2024-01-25T05:16:45;40.22;;;8.45;;
10473;SDS011;5284;50.446;7.904;2024-01-25T05:21:48;65.20;;;8.57;;
10473;SDS011;5284;50.446;7.904;2024-01-25T05:26:52;48.33;;;8.90;;
10473;SDS011;5284;50.446;7.904;2024-01-25T05:31:57;54.78;;;9.63;;
10473;SDS011;5284;50.446;7.904;2024-01-25T05:37:00;60.72;;;8.48;;
10473;SDS011;5284;50.446;7.904;2024-01-25T05:42:06;49.85;;;8.57;;
10473;SDS011;5284;50.446;7.904;2024-01-25T05:47:10;45.67;;;9.98;;
10473;SDS011;5284;50.446;7.904;2024-01-25T05:52:15;44.53;;;8.32;;
10473;SDS011;5284;50.446;7.904;2024-01-25T05:57:19;61.95;;;8.45;;
10473;SDS011;5284;50.446;7.904;2024-01-25T06:02:23;56.70;;;8.38;;
10473;SDS011;5284;50.446;7.904;2024-01-25T06:07:27;68.75;;;9.63;;
10473;SDS011;5284;50.446;7.904;2024-01-25T06:12:33;46.78;;;8.88;;
10473;SDS011;5284;50.446;7.904;2024-01-25T06:17:37;57.90;;;9.27;;
10473;SDS011;5284;50.446;7.904;2024-01-25T06:22:41;60.83;;;9.15;;
10473;SDS011;5284;50.446;7.904;2024-01-25T06:27:46;56.42;;;8.65;;
10473;SDS011;5284;50.446;7.904;2024-01-25T06:32:51;36.87;;;8.37;;
10473;SDS011;5284;50.446;7.904;2024-01-25T06:37:55;57.70;;;8.00;;
10473;SDS011;5284;50.446;7.904;2024-01-25T06:43:03;52.13;;;8.40;;
10473;SDS011;5284;50.446;7.904;2024-01-25T06:48:07;41.28;;;8.93;;
10473;SDS011;5284;50.446;7.904;2024-01-25T06:53:11;66.60;;;11.40;;
10473;SDS011;5284;50.446;7.904;2024-01-25T06:58:15;76.13;;;11.55;;
10473;SDS011;5284;50.446;7.904;2024-01-25T07:03:19;64.13;;;13.10;;
10473;SDS011;5284;50.446;7.904;2024-01-25T07:08:22;49.03;;;10.35;;
10473;SDS011;5284;50.446;7.904;2024-01-25T07:13:27;63.83;;;8.55;;
10473;SDS011;5284;50.446;7.904;2024-01-25T07:18:30;51.78;;;8.52;;
10473;SDS011;5284;50.446;7.904;2024-01-25T07:23:33;41.10;;;6.97;;
10473;SDS011;5284;50.446;7.904;2024-01-25T07:28:38;59.65;;;8.52;;
10473;SDS011;5284;50.446;7.904;2024-01-25T07:33:41;52.33;;;9.85;;
10473;SDS011;5284;50.446;7.904;2024-01-25T07:38:45;52.00;;;7.57;;
10473;SDS011;5284;50.446;7.904;2024-01-25T07:43:51;56.30;;;9.88;;
10473;SDS011;5284;50.446;7.904;2024-01-25T07:48:56;68.13;;;9.48;;
10473;SDS011;5284;50.446;7.904;2024-01-25T07:54:00;62.80;;;10.07;;
10473;SDS011;5284;50.446;7.904;2024-01-25T07:59:05;45.83;;;8.68;;
10473;SDS011;5284;50.446;7.904;2024-01-25T08:04:08;59.90;;;9.32;;
10473;SDS011;5284;50.446;7.904;2024-01-25T08:09:11;67.78;;;8.13;;
10473;SDS011;5284;50.446;7.904;2024-01-25T08:14:16;48.45;;;9.32;;
10473;SDS011;5284;50.446;7.904;2024-01-25T08:19:19;51.35;;;9.52;;
10473;SDS011;5284;50.446;7.904;2024-01-25T08:24:23;50.92;;;8.30;;
10473;SDS011;5284;50.446;7.904;2024-01-25T08:29:27;41.10;;;7.50;;
10473;SDS011;5284;50.446;7.904;2024-01-25T08:34:30;46.22;;;7.65;;
10473;SDS011;5284;50.446;7.904;2024-01-25T08:39:34;41.03;;;8.30;;
10473;SDS011;5284;50.446;7.904;2024-01-25T08:44:39;47.97;;;9.45;;
10473;SDS011;5284;50.446;7.904;2024-01-25T08:49:45;58.53;;;9.85;;
10473;SDS011;5284;50.446;7.904;2024-01-25T08:54:49;69.20;;;9.52;;
10473;SDS011;5284;50.446;7.904;2024-01-25T08:59:54;72.60;;;10.63;;
10473;SDS011;5284;50.446;7.904;2024-01-25T09:04:59;53.42;;;8.57;;
10473;SDS011;5284;50.446;7.904;2024-01-25T09:10:03;50.10;;;8.00;;
10473;SDS011;5284;50.446;7.904;2024-01-25T09:15:09;52.97;;;9.40;;
10473;SDS011;5284;50.446;7.904;2024-01-25T09:20:12;50.38;;;7.43;;
10473;SDS011;5284;50.446;7.904;2024-01-25T09:25:16;51.40;;;9.82;;
10473;SDS011;5284;50.446;7.904;2024-01-25T09:30:21;44.53;;;7.22;;
10473;SDS011;5284;50.446;7.904;2024-01-25T09:35:24;45.60;;;7.88;;
10473;SDS011;5284;50.446;7.904;2024-01-25T09:40:28;63.30;;;7.35;;
10473;SDS011;5284;50.446;7.904;2024-01-25T09:45:33;50.38;;;8.60;;
10473;SDS011;5284;50.446;7.904;2024-01-25T09:50:37;62.47;;;9.77;;
10473;SDS011;5284;50.446;7.904;2024-01-25T09:55:41;35.45;;;6.70;;
10473;SDS011;5284;50.446;7.904;2024-01-25T10:05:52;42.03;;;6.80;;
10473;SDS011;5284;50.446;7.904;2024-01-25T10:10:56;40.80;;;6.57;;
10473;SDS011;5284;50.446;7.904;2024-01-25T10:16:00;38.33;;;5.88;;
10473;SDS011;5284;50.446;7.904;2024-01-25T10:21:04;34.53;;;6.03;;
10473;SDS011;5284;50.446;7.904;2024-01-25T10:26:09;41.00;;;6.22;;
10473;SDS011;5284;50.446;7.904;2024-01-25T10:31:14;38.97;;;5.43;;
10473;SDS011;5284;50.446;7.904;2024-01-25T10:36:18;36.75;;;5.13;;
10473;SDS011;5284;50.446;7.904;2024-01-25T10:41:23;36.67;;;7.40;;
10473;SDS011;5284;50.446;7.904;2024-01-25T10:46:31;40.15;;;5.65;;
10473;SDS011;5284;50.446;7.904;2024-01-25T10:51:35;30.45;;;4.47;;
10473;SDS011;5284;50.446;7.904;2024-01-25T10:56:40;39.97;;;5.80;;
10473;SDS011;5284;50.446;7.904;2024-01-25T11:01:46;43.42;;;6.80;;
10473;SDS011;5284;50.446;7.904;2024-01-25T11:06:50;36.78;;;5.65;;
10473;SDS011;5284;50.446;7.904;2024-01-25T11:11:54;62.33;;;7.03;;
10473;SDS011;5284;50.446;7.904;2024-01-25T11:16:58;44.40;;;6.25;;
10473;SDS011;5284;50.446;7.904;2024-01-25T11:22:16;38.80;;;5.50;;
10473;SDS011;5284;50.446;7.904;2024-01-25T11:27:20;39.90;;;6.03;;
10473;SDS011;5284;50.446;7.904;2024-01-25T11:32:24;39.53;;;6.45;;
10473;SDS011;5284;50.446;7.904;2024-01-25T11:37:28;44.00;;;6.18;;
10473;SDS011;5284;50.446;7.904;2024-01-25T11:42:31;37.03;;;5.53;;
10473;SDS011;5284;50.446;7.904;2024-01-25T11:47:36;36.63;;;6.18;;
10473;SDS011;5284;50.446;7.904;2024-01-25T11:52:40;42.47;;;7.13;;
10473;SDS011;5284;50.446;7.904;2024-01-25T11:57:43;32.45;;;5.25;;
10473;SDS011;5284;50.446;7.904;2024-01-25T12:02:48;32.53;;;5.55;;
10473;SDS011;5284;50.446;7.904;2024-01-25T12:07:52;33.58;;;5.45;;
10473;SDS011;5284;50.446;7.904;2024-01-25T12:12:55;36.33;;;5.20;;
10473;SDS011;5284;50.446;7.904;2024-01-25T12:18:01;32.67;;;4.88;;
10473;SDS011;5284;50.446;7.904;2024-01-25T12:23:05;29.88;;;4.90;;
10473;SDS011;5284;50.446;7.904;2024-01-25T12:28:09;26.02;;;4.28;;
10473;SDS011;5284;50.446;7.904;2024-01-25T12:33:13;26.50;;;5.55;;
10473;SDS011;5284;50.446;7.904;2024-01-25T12:38:22;38.85;;;5.70;;
10473;SDS011;5284;50.446;7.904;2024-01-25T12:43:25;29.90;;;5.13;;
10473;SDS011;5284;50.446;7.904;2024-01-25T12:48:30;26.40;;;5.65;;
10473;SDS011;5284;50.446;7.904;2024-01-25T12:53:33;33.03;;;4.35;;
10473;SDS011;5284;50.446;7.904;2024-01-25T12:58:36;42.47;;;5.32;;
10473;SDS011;5284;50.446;7.904;2024-01-25T13:03:43;35.03;;;4.25;;
10473;SDS011;5284;50.446;7.904;2024-01-25T13:08:49;29.85;;;5.30;;
10473;SDS011;5284;50.446;7.904;2024-01-25T13:13:52;39.28;;;5.78;;
10473;SDS011;5284;50.446;7.904;2024-01-25T13:18:56;35.33;;;5.97;;
10473;SDS011;5284;50.446;7.904;2024-01-25T13:23:59;33.72;;;4.97;;
10473;SDS011;5284;50.446;7.904;2024-01-25T13:29:03;34.83;;;4.60;;
10473;SDS011;5284;50.446;7.904;2024-01-25T13:34:07;32.95;;;5.47;;
10473;SDS011;5284;50.446;7.904;2024-01-25T13:39:11;36.85;;;10.02;;
10473;SDS011;5284;50.446;7.904;2024-01-25T13:44:14;43.58;;;5.65;;
10473;SDS011;5284;50.446;7.904;2024-01-25T13:49:18;29.38;;;4.85;;
10473;SDS011;5284;50.446;7.904;2024-01-25T13:54:21;49.63;;;5.25;;
10473;SDS011;5284;50.446;7.904;2024-01-25T13:59:29;28.53;;;4.93;;
10473;SDS011;5284;50.446;7.904;2024-01-25T14:04:33;48.92;;;6.63;;
10473;SDS011;5284;50.446;7.904;2024-01-25T14:09:38;34.28;;;5.38;;
10473;SDS011;5284;50.446;7.904;2024-01-25T14:14:42;30.48;;;5.18;;
10473;SDS011;5284;50.446;7.904;2024-01-25T14:19:47;29.83;;;4.75;;
10473;SDS011;5284;50.446;7.904;2024-01-25T14:24:51;29.20;;;5.18;;
10473;SDS011;5284;50.446;7.904;2024-01-25T14:29:54;39.72;;;4.50;;
10473;SDS011;5284;50.446;7.904;2024-01-25T14:34:59;33.80;;;5.07;;
10473;SDS011;5284;50.446;7.904;2024-01-25T14:40:03;30.80;;;5.45;;
10473;SDS011;5284;50.446;7.904;2024-01-25T14:45:29;30.35;;;4.28;;
10473;SDS011;5284;50.446;7.904;2024-01-25T14:50:33;27.02;;;4.75;;
10473;SDS011;5284;50.446;7.904;2024-01-25T14:55:36;41.25;;;4.35;;
10473;SDS011;5284;50.446;7.904;2024-01-25T15:00:41;36.97;;;4.90;;
10473;SDS011;5284;50.446;7.904;2024-01-25T15:05:46;44.95;;;4.70;;
10473;SDS011;5284;50.446;7.904;2024-01-25T15:10:51;36.33;;;6.40;;
10473;SDS011;5284;50.446;7.904;2024-01-25T15:15:55;32.55;;;4.25;;
10473;SDS011;5284;50.446;7.904;2024-01-25T15:20:59;43.95;;;4.72;;
10473;SDS011;5284;50.446;7.904;2024-01-25T15:26:03;32.35;;;4.68;;
10473;SDS011;5284;50.446;7.904;2024-01-25T15:31:06;36.28;;;5.40;;
10473;SDS011;5284;50.446;7.904;2024-01-25T15:36:10;23.65;;;5.38;;
10473;SDS011;5284;50.446;7.904;2024-01-25T15:41:16;31.83;;;5.63;;
10473;SDS011;5284;50.446;7.904;2024-01-25T15:46:23;37.40;;;9.57;;
10473;SDS011;5284;50.446;7.904;2024-01-25T15:51:28;42.10;;;9.25;;
10473;SDS011;5284;50.446;7.904;2024-01-25T15:56:31;38.35;;;5.40;;
10473;SDS011;5284;50.446;7.904;2024-01-25T16:01:34;37.22;;;5.57;;
10473;SDS011;5284;50.446;7.904;2024-01-25T16:06:40;37.78;;;5.65;;
10473;SDS011;5284;50.446;7.904;2024-01-25T16:11:49;36.65;;;5.82;;
10473;SDS011;5284;50.446;7.904;2024-01-25T16:16:53;41.45;;;5.43;;
10473;SDS011;5284;50.446;7.904;2024-01-25T16:21:58;42.58;;;5.30;;
10473;SDS011;5284;50.446;7.904;2024-01-25T16:27:01;46.58;;;7.63;;
10473;SDS011;5284;50.446;7.904;2024-01-25T16:32:05;46.08;;;7.18;;
10473;SDS011;5284;50.446;7.904;2024-01-25T16:37:11;51.28;;;8.60;;
10473;SDS011;5284;50.446;7.904;2024-01-25T16:42:15;52.28;;;10.25;;
10473;SDS011;5284;50.446;7.904;2024-01-25T16:47:18;51.53;;;10.82;;
10473;SDS011;5284;50.446;7.904;2024-01-25T16:52:22;35.92;;;8.85;;
10473;SDS011;5284;50.446;7.904;2024-01-25T16:57:27;37.67;;;9.83;;
10473;SDS011;5284;50.446;7.904;2024-01-25T17:02:32;51.88;;;8.82;;
10473;SDS011;5284;50.446;7.904;2024-01-25T17:07:36;47.05;;;7.22;;
10473;SDS011;5284;50.446;7.904;2024-01-25T17:12:39;55.72;;;8.80;;
10473;SDS011;5284;50.446;7.904;2024-01-25T17:17:42;30.15;;;6.53;;
10473;SDS011;5284;50.446;7.904;2024-01-25T17:22:46;48.22;;;7.55;;
10473;SDS011;5284;50.446;7.904;2024-01-25T17:27:49;49.45;;;10.50;;
10473;SDS011;5284;50.446;7.904;2024-01-25T17:32:56;64.63;;;14.47;;
10473;SDS011;5284;50.446;7.904;2024-01-25T17:38:01;75.20;;;18.98;;
10473;SDS011;5284;50.446;7.904;2024-01-25T17:43:04;52.03;;;13.63;;
10473;SDS011;5284;50.446;7.904;2024-01-25T17:48:07;41.63;;;9.27;;
10473;SDS011;5284;50.446;7.904;2024-01-25T17:53:13;32.60;;;5.57;;
10473;SDS011;5284;50.446;7.904;2024-01-25T17:58:16;26.48;;;5.68;;
10473;SDS011;5284;50.446;7.904;2024-01-25T18:03:19;27.20;;;4.32;;
10473;SDS011;5284;50.446;7.904;2024-01-25T18:08:23;30.20;;;4.13;;
10473;SDS011;5284;50.446;7.904;2024-01-25T18:13:26;20.77;;;4.57;;
10473;SDS011;5284;50.446;7.904;2024-01-25T18:18:29;67.22;;;16.33;;
10473;SDS011;5284;50.446;7.904;2024-01-25T18:23:35;29.38;;;7.88;;
10473;SDS011;5284;50.446;7.904;2024-01-25T18:28:38;32.92;;;6.85;;
10473;SDS011;5284;50.446;7.904;2024-01-25T18:33:41;45.08;;;9.13;;
10473;SDS011;5284;50.446;7.904;2024-01-25T18:38:46;40.05;;;4.68;;
10473;SDS011;5284;50.446;7.904;2024-01-25T18:43:49;32.22;;;4.90;;
10473;SDS011;5284;50.446;7.904;2024-01-25T18:48:54;29.00;;;4.07;;
10473;SDS011;5284;50.446;7.904;2024-01-25T18:53:59;32.05;;;4.68;;
10473;SDS011;5284;50.446;7.904;2024-01-25T18:59:02;30.50;;;4.53;;
10473;SDS011;5284;50.446;7.904;2024-01-25T19:04:06;25.98;;;3.92;;
10473;SDS011;5284;50.446;7.904;2024-01-25T19:09:11;23.63;;;3.92;;
10473;SDS011;5284;50.446;7.904;2024-01-25T19:14:14;27.80;;;4.50;;
10473;SDS011;5284;50.446;7.904;2024-01-25T19:19:17;25.08;;;4.85;;
10473;SDS011;5284;50.446;7.904;2024-01-25T19:24:22;25.48;;;5.85;;
10473;SDS011;5284;50.446;7.904;2024-01-25T19:29:25;37.35;;;6.03;;
10473;SDS011;5284;50.446;7.904;2024-01-25T19:34:30;26.15;;;5.75;;
10473;SDS011;5284;50.446;7.904;2024-01-25T19:39:35;28.27;;;6.18;;
10473;SDS011;5284;50.446;7.904;2024-01-25T19:44:37;35.75;;;8.75;;
10473;SDS011;5284;50.446;7.904;2024-01-25T19:49:40;34.40;;;8.02;;
10473;SDS011;5284;50.446;7.904;2024-01-25T19:54:47;27.30;;;5.85;;
10473;SDS011;5284;50.446;7.904;2024-01-25T19:59:50;38.28;;;8.63;;
10473;SDS011;5284;50.446;7.904;2024-01-25T20:04:53;26.30;;;5.90;;
10473;SDS011;5284;50.446;7.904;2024-01-25T20:09:58;25.88;;;5.13;;
10473;SDS011;5284;50.446;7.904;2024-01-25T20:15:02;22.75;;;4.53;;
10473;SDS011;5284;50.446;7.904;2024-01-25T20:20:08;30.52;;;5.13;;
10473;SDS011;5284;50.446;7.904;2024-01-25T20:25:14;18.83;;;4.30;;
10473;SDS011;5284;50.446;7.904;2024-01-25T20:30:17;23.63;;;4.28;;
10473;SDS011;5284;50.446;7.904;2024-01-25T20:35:21;15.77;;;4.40;;
10473;SDS011;5284;50.446;7.904;2024-01-25T20:40:25;17.60;;;3.97;;
10473;SDS011;5284;50.446;7.904;2024-01-25T20:45:28;18.67;;;5.30;;
10473;SDS011;5284;50.446;7.904;2024-01-25T20:50:32;24.73;;;5.78;;
10473;SDS011;5284;50.446;7.904;2024-01-25T20:55:41;23.55;;;4.38;;
10473;SDS011;5284;50.446;7.904;2024-01-25T21:00:44;13.23;;;2.90;;
10473;SDS011;5284;50.446;7.904;2024-01-25T21:05:50;17.27;;;3.38;;
10473;SDS011;5284;50.446;7.904;2024-01-25T21:10:55;22.13;;;5.45;;
10473;SDS011;5284;50.446;7.904;2024-01-25T21:15:58;13.38;;;3.10;;
10473;SDS011;5284;50.446;7.904;2024-01-25T21:21:01;7.40;;;2.72;;
10473;SDS011;5284;50.446;7.904;2024-01-25T21:26:06;17.60;;;5.00;;
10473;SDS011;5284;50.446;7.904;2024-01-25T21:31:12;24.95;;;6.95;;
10473;SDS011;5284;50.446;7.904;2024-01-25T21:36:16;14.00;;;5.13;;
10473;SDS011;5284;50.446;7.904;2024-01-25T21:41:21;20.45;;;5.20;;
10473;SDS011;5284;50.446;7.904;2024-01-25T21:46:24;22.30;;;6.28;;
10473;SDS011;5284;50.446;7.904;2024-01-25T21:51:27;21.95;;;6.38;;
10473;SDS011;5284;50.446;7.904;2024-01-25T21:56:31;25.13;;;6.53;;
10473;SDS011;5284;50.446;7.904;2024-01-25T22:01:36;19.77;;;6.28;;
10473;SDS011;5284;50.446;7.904;2024-01-25T22:06:39;14.75;;;5.65;;
10473;SDS011;5284;50.446;7.904;2024-01-25T22:11:43;16.67;;;7.07;;
10473;SDS011;5284;50.446;7.904;2024-01-25T22:16:46;14.50;;;4.65;;
10473;SDS011;5284;50.446;7.904;2024-01-25T22:21:50;14.70;;;5.30;;
10473;SDS011;5284;50.446;7.904;2024-01-25T22:26:55;12.13;;;4.90;;
10473;SDS011;5284;50.446;7.904;2024-01-25T22:31:57;15.90;;;4.82;;
10473;SDS011;5284;50.446;7.904;2024-01-25T22:37:00;15.88;;;4.78;;
10473;SDS011;5284;50.446;7.904;2024-01-25T22:42:08;10.15;;;4.03;;
10473;SDS011;5284;50.446;7.904;2024-01-25T22:47:11;13.70;;;3.78;;
10473;SDS011;5284;50.446;7.904;2024-01-25T22:52:14;10.05;;;4.28;;
10473;SDS011;5284;50.446;7.904;2024-01-25T22:57:19;16.95;;;4.72;;
10473;SDS011;5284;50.446;7.904;2024-01-25T23:02:22;10.80;;;3.80;;
10473;SDS011;5284;50.446;7.904;2024-01-25T23:07:27;7.00;;;3.00;;
10473;SDS011;5284;50.446;7.904;2024-01-25T23:12:31;9.88;;;3.20;;
10473;SDS011;5284;50.446;7.904;2024-01-25T23:17:34;7.50;;;3.00;;
10473;SDS011;5284;50.446;7.904;2024-01-25T23:22:38;5.10;;;2.53;;
10473;SDS011;5284;50.446;7.904;2024-01-25T23:27:43;6.70;;;3.28;;
10473;SDS011;5284;50.446;7.904;2024-01-25T23:32:47;6.53;;;3.10;;
10473;SDS011;5284;50.446;7.904;2024-01-25T23:37:51;7.35;;;3.67;;
10473;SDS011;5284;50.446;7.904;2024-01-25T23:42:57;11.05;;;5.25;;
10473;SDS011;5284;50.446;7.904;2024-01-25T23:48:00;7.90;;;4.47;;
10473;SDS011;5284;50.446;7.904;2024-01-25T23:53:06;3.63;;;2.17;;
10473;SDS011;5284;50.446;7.904;2024-01-25T23:58:11;3.92;;;2.33;;
